Time;durP1;ratioP1;P1;durP2;ratioP2;P2;SDS_P1;SDS_P2;PMS_P1;PMS_P2;Temp;Humidity;BMP_temperature;BMP_pressure;BME280_temperature;BME280_humidity;BME280_pressure;Samples;Min_cycle;Max_cycle;Signal;HPM_P1;HPM_P2
2022/07/06 00:00:45;;;;;;;9.32;2.53;;;11.70;1.00;;;;;;5073452;28;20440;-25
2022/07/06 00:03:11;;;;;;;4.28;1.13;;;11.70;1.00;;;;;;5055683;28;20050;-25
2022/07/06 00:05:36;;;;;;;5.63;1.25;;;11.60;1.00;;;;;;5055614;28;20044;-25
2022/07/06 00:08:02;;;;;;;8.07;1.67;;;11.60;1.00;;;;;;5073337;28;20489;-25
2022/07/06 00:10:28;;;;;;;5.78;0.93;;;11.50;1.00;;;;;;5073285;28;20044;-25
2022/07/06 00:12:54;;;;;;;3.92;1.30;;;11.50;1.00;;;;;;5073751;28;20097;-25
2022/07/06 00:15:19;;;;;;;3.92;1.25;;;11.50;1.00;;;;;;5077213;28;20091;-25
2022/07/06 00:17:45;;;;;;;3.72;1.33;;;11.50;1.00;;;;;;5077534;28;20363;-25
2022/07/06 00:20:11;;;;;;;4.07;1.42;;;11.40;1.00;;;;;;5076705;28;20052;-26
2022/07/06 00:22:36;;;;;;;4.65;1.42;;;11.40;1.00;;;;;;5076969;28;20049;-25
2022/07/06 00:25:02;;;;;;;7.55;1.77;;;11.40;1.00;;;;;;5076945;28;20178;-25
2022/07/06 00:27:28;;;;;;;4.50;1.73;;;11.40;1.00;;;;;;5076795;28;20041;-25
2022/07/06 00:29:53;;;;;;;3.92;1.30;;;11.40;1.00;;;;;;5076844;28;20048;-25
2022/07/06 00:32:19;;;;;;;5.13;2.35;;;11.40;1.00;;;;;;5076666;28;20040;-26
2022/07/06 00:34:45;;;;;;;2.53;1.20;;;11.40;1.00;;;;;;5076738;28;20048;-25
2022/07/06 00:37:11;;;;;;;5.70;1.77;;;11.40;1.00;;;;;;5077241;28;20071;-25
2022/07/06 00:39:36;;;;;;;5.50;1.70;;;11.40;1.00;;;;;;5076511;28;20132;-25
2022/07/06 00:42:02;;;;;;;5.65;2.20;;;11.40;1.00;;;;;;5075627;28;20079;-25
2022/07/06 00:44:28;;;;;;;5.57;1.60;;;11.40;1.00;;;;;;5075377;28;20051;-26
2022/07/06 00:46:54;;;;;;;6.65;2.35;;;11.50;1.00;;;;;;5075303;28;20131;-26
2022/07/06 00:52:04;;;;;;;17.10;2.38;;;11.50;1.00;;;;;;5076486;28;20083;-25
2022/07/06 00:54:31;;;;;;;4.93;2.10;;;11.60;9.40;;;;;;5075235;28;20052;-26
2022/07/06 00:56:58;;;;;;;3.55;1.58;;;11.60;31.80;;;;;;5077168;28;20044;-25
2022/07/06 00:59:24;;;;;;;7.15;1.42;;;11.70;96.80;;;;;;5076308;28;20474;-25
2022/07/06 01:01:50;;;;;;;4.22;1.25;;;11.80;99.90;;;;;;5076205;28;20123;-25
2022/07/06 01:04:16;;;;;;;9.23;2.38;;;11.90;99.90;;;;;;5075899;28;20481;-25
2022/07/06 01:06:43;;;;;;;4.40;1.58;;;12.00;99.90;;;;;;5076919;28;20082;-25
2022/07/06 01:09:08;;;;;;;5.95;1.40;;;12.10;95.50;;;;;;5076932;28;20055;-25
2022/07/06 01:11:34;;;;;;;4.00;1.55;;;12.20;79.60;;;;;;5074935;28;20123;-25
2022/07/06 01:14:01;;;;;;;4.15;1.55;;;12.20;45.80;;;;;;5075871;28;20048;-25
2022/07/06 01:16:26;;;;;;;4.50;1.25;;;12.20;32.60;;;;;;5076078;28;20443;-25
2022/07/06 01:18:52;;;;;;;3.83;1.65;;;12.20;65.40;;;;;;5076181;28;20080;-25
2022/07/06 01:21:18;;;;;;;6.65;1.73;;;12.20;82.40;;;;;;5075904;28;20487;-25
2022/07/06 01:23:45;;;;;;;2.90;1.02;;;12.20;88.80;;;;;;5076400;28;20048;-25
2022/07/06 01:26:20;;;;;;;6.95;1.73;;;12.20;99.90;;;;;;5074651;28;20051;-26
2022/07/06 01:28:48;;;;;;;8.85;1.20;;;12.40;99.90;;;;;;5074946;28;20052;-26
2022/07/06 01:31:25;;;;;;;6.68;1.00;;;12.40;99.90;;;;;;5058089;28;20053;-26
2022/07/06 01:33:53;;;;;;;5.35;1.38;;;12.40;99.90;;;;;;5075729;28;20181;-26
2022/07/06 01:36:20;;;;;;;3.90;1.55;;;12.40;96.70;;;;;;5075647;28;20045;-26
2022/07/06 01:38:51;;;;;;;9.45;1.50;;;12.50;80.50;;;;;;5074636;28;20150;-26
2022/07/06 01:41:17;;;;;;;9.93;1.10;;;12.50;59.70;;;;;;5076111;28;20095;-26
2022/07/06 01:43:43;;;;;;;10.90;1.90;;;12.50;29.60;;;;;;5074306;28;20048;-26
2022/07/06 01:46:09;;;;;;;3.85;0.80;;;12.50;1.00;;;;;;5075428;28;20048;-26
2022/07/06 01:48:34;;;;;;;5.30;1.10;;;12.60;1.00;;;;;;5075397;28;20135;-26
2022/07/06 01:51:00;;;;;;;5.22;0.73;;;12.50;1.00;;;;;;5075357;28;20053;-26
2022/07/06 01:53:26;;;;;;;7.90;1.35;;;12.50;1.00;;;;;;5075585;28;20079;-26
2022/07/06 01:55:52;;;;;;;3.67;0.80;;;12.50;1.00;;;;;;5075233;28;20527;-26
2022/07/06 01:58:17;;;;;;;6.78;1.40;;;12.50;1.00;;;;;;5074035;28;20122;-26
2022/07/06 02:00:43;;;;;;;4.45;1.48;;;12.40;1.00;;;;;;5074195;28;20531;-26
2022/07/06 02:03:09;;;;;;;10.05;1.55;;;12.30;1.00;;;;;;5075626;28;20066;-26
2022/07/06 02:05:34;;;;;;;6.78;1.67;;;12.30;1.00;;;;;;5075488;28;20040;-26
2022/07/06 02:08:00;;;;;;;7.50;1.20;;;12.30;1.00;;;;;;5057265;28;20103;-26
2022/07/06 02:10:26;;;;;;;4.80;1.30;;;12.30;1.00;;;;;;5074944;28;20067;-26
2022/07/06 02:12:51;;;;;;;7.18;1.95;;;12.20;1.00;;;;;;5074909;28;20044;-26
2022/07/06 02:15:17;;;;;;;5.07;1.40;;;12.20;1.00;;;;;;5075486;28;20493;-26
2022/07/06 02:17:43;;;;;;;3.85;1.02;;;12.10;1.00;;;;;;5074733;28;20515;-26
2022/07/06 02:20:09;;;;;;;4.70;1.38;;;12.00;1.00;;;;;;5074956;28;20131;-26
2022/07/06 02:22:35;;;;;;;5.00;1.50;;;12.00;8.50;;;;;;5073979;28;20513;-26
2022/07/06 02:25:00;;;;;;;10.20;2.05;;;11.80;1.00;;;;;;5075226;28;20045;-27
2022/07/06 02:27:26;;;;;;;9.32;2.08;;;11.60;1.00;;;;;;5074519;28;20098;-25
2022/07/06 02:29:52;;;;;;;7.00;1.50;;;11.60;1.00;;;;;;5074576;28;20040;-26
2022/07/06 02:32:17;;;;;;;4.82;1.40;;;11.30;1.00;;;;;;5074525;28;20037;-26
2022/07/06 02:34:43;;;;;;;5.50;1.60;;;11.20;1.00;;;;;;5074751;28;20075;-26
2022/07/06 02:37:09;;;;;;;5.90;1.73;;;11.10;1.00;;;;;;5074251;28;20045;-26
2022/07/06 02:39:35;;;;;;;6.90;2.42;;;10.90;1.00;;;;;;5074446;28;20060;-26
2022/07/06 02:42:01;;;;;;;7.00;1.73;;;10.80;1.00;;;;;;5074866;28;20371;-26
2022/07/06 02:44:26;;;;;;;7.88;2.13;;;10.70;1.00;;;;;;5074844;28;20048;-26
2022/07/06 02:46:52;;;;;;;5.20;1.90;;;10.60;1.00;;;;;;5073045;28;20044;-26
2022/07/06 02:49:18;;;;;;;6.85;1.90;;;10.50;1.00;;;;;;5074208;28;20044;-26
2022/07/06 02:51:44;;;;;;;10.27;2.10;;;10.40;1.00;;;;;;5074147;28;20110;-26
2022/07/06 02:54:09;;;;;;;7.97;1.95;;;10.30;1.00;;;;;;5074127;28;20052;-26
2022/07/06 02:56:35;;;;;;;5.15;1.73;;;10.20;1.00;;;;;;5057048;28;20041;-26
2022/07/06 02:59:01;;;;;;;7.05;1.92;;;10.10;1.00;;;;;;5074033;28;20442;-26
2022/07/06 03:01:26;;;;;;;27.35;2.35;;;10.00;1.00;;;;;;5074631;28;20117;-26
2022/07/06 03:03:52;;;;;;;5.13;2.17;;;10.00;1.00;;;;;;5057201;28;20044;-26
2022/07/06 03:06:18;;;;;;;7.25;2.20;;;9.80;1.00;;;;;;5072842;28;20134;-26
2022/07/06 03:08:43;;;;;;;8.20;1.65;;;9.70;1.00;;;;;;5073922;28;20380;-26
2022/07/06 03:11:09;;;;;;;10.32;1.88;;;9.70;1.00;;;;;;5073846;28;20045;-26
2022/07/06 03:13:35;;;;;;;5.20;1.80;;;9.60;1.00;;;;;;5073207;28;20052;-26
2022/07/06 03:16:01;;;;;;;5.65;1.67;;;9.50;1.00;;;;;;5074644;28;20088;-26
2022/07/06 03:18:27;;;;;;;6.70;1.95;;;9.50;1.00;;;;;;5073709;28;20044;-26
2022/07/06 03:20:53;;;;;;;7.15;2.42;;;9.40;1.00;;;;;;5074370;28;20052;-26
2022/07/06 03:23:19;;;;;;;11.48;1.63;;;9.30;1.00;;;;;;5073813;28;20059;-26
2022/07/06 03:25:45;;;;;;;9.35;1.83;;;9.20;6.40;;;;;;5073670;28;20501;-26
2022/07/06 03:28:11;;;;;;;10.95;1.80;;;9.20;8.60;;;;;;5073037;28;20087;-26
2022/07/06 03:30:37;;;;;;;6.10;1.95;;;9.10;21.90;;;;;;5073379;28;20079;-25
2022/07/06 03:33:02;;;;;;;11.35;1.30;;;9.10;38.60;;;;;;5073684;28;20177;-26
2022/07/06 03:35:28;;;;;;;9.38;1.67;;;9.10;45.30;;;;;;5056282;28;20048;-26
2022/07/06 03:37:54;;;;;;;5.65;1.65;;;9.00;53.60;;;;;;5073668;28;20049;-26
2022/07/06 03:40:20;;;;;;;15.98;2.03;;;9.10;77.90;;;;;;5073371;28;20055;-26
2022/07/06 03:42:46;;;;;;;9.23;1.33;;;9.10;95.00;;;;;;5073500;28;20567;-26
2022/07/06 03:45:11;;;;;;;4.78;1.20;;;9.20;99.30;;;;;;5073500;28;20133;-27
2022/07/06 03:47:37;;;;;;;6.03;1.48;;;9.10;99.90;;;;;;5072227;28;20086;-27
2022/07/06 03:50:03;;;;;;;3.67;1.48;;;9.20;99.90;;;;;;5077931;28;20048;-27
2022/07/06 03:52:29;;;;;;;5.97;0.82;;;9.10;99.90;;;;;;5077549;28;20048;-26
2022/07/06 03:54:56;;;;;;;7.50;1.42;;;9.20;99.90;;;;;;5078130;28;20054;-26
2022/07/06 03:57:21;;;;;;;6.70;1.58;;;9.20;99.90;;;;;;5076325;28;20463;-26
2022/07/06 03:59:48;;;;;;;5.72;1.15;;;9.30;99.90;;;;;;5077455;28;20048;-26
2022/07/06 04:02:13;;;;;;;8.20;1.25;;;9.30;99.90;;;;;;5060586;28;20102;-27
2022/07/06 04:04:39;;;;;;;6.72;1.25;;;9.30;99.90;;;;;;5076175;28;20044;-26
2022/07/06 04:07:05;;;;;;;5.82;1.17;;;9.40;99.90;;;;;;5077266;28;20080;-26
2022/07/06 04:09:30;;;;;;;8.52;1.30;;;9.50;99.90;;;;;;5076106;28;20048;-27
2022/07/06 04:11:56;;;;;;;11.82;1.58;;;9.60;99.90;;;;;;5076229;28;20044;-26
2022/07/06 04:14:22;;;;;;;5.70;1.55;;;9.70;99.90;;;;;;5075722;28;20103;-26
2022/07/06 04:16:48;;;;;;;6.93;0.90;;;9.80;99.90;;;;;;5077186;28;20102;-26
2022/07/06 04:19:14;;;;;;;4.20;1.10;;;9.80;99.90;;;;;;5059378;28;20463;-25
2022/07/06 04:21:39;;;;;;;8.52;2.40;;;9.90;99.90;;;;;;5077290;28;20044;-25
2022/07/06 04:24:05;;;;;;;9.13;2.03;;;10.40;1.00;;;;;;5077513;28;20082;-26
2022/07/06 04:26:31;;;;;;;8.27;1.40;;;10.80;1.00;;;;;;5077463;28;20128;-26
2022/07/06 04:28:57;;;;;;;9.80;1.25;;;11.10;1.00;;;;;;5076831;28;20052;-25
2022/07/06 04:31:22;;;;;;;6.57;1.05;;;11.40;1.00;;;;;;5075650;28;20041;-25
2022/07/06 04:33:48;;;;;;;6.47;1.20;;;11.60;1.00;;;;;;5076842;28;20052;-26
2022/07/06 04:36:14;;;;;;;7.35;1.42;;;11.70;1.00;;;;;;5059144;28;20429;-26
2022/07/06 04:38:40;;;;;;;9.65;1.15;;;11.80;99.90;;;;;;5075548;28;20044;-26
2022/07/06 04:41:06;;;;;;;5.32;0.60;;;11.90;99.90;;;;;;5076643;28;20501;-26
2022/07/06 04:43:31;;;;;;;5.75;0.75;;;12.00;99.90;;;;;;5076633;28;20044;-26
2022/07/06 04:45:57;;;;;;;6.47;0.50;;;12.10;99.90;;;;;;5075326;28;20128;-26
2022/07/06 04:48:23;;;;;;;3.00;0.55;;;12.10;99.90;;;;;;5076563;28;20047;-26
2022/07/06 04:50:48;;;;;;;3.65;0.73;;;12.20;99.90;;;;;;5076537;28;20049;-26
2022/07/06 04:53:14;;;;;;;7.57;0.85;;;12.30;99.90;;;;;;5076450;28;20088;-26
2022/07/06 04:55:40;;;;;;;2.40;0.57;;;12.30;99.90;;;;;;5076045;28;20044;-27
2022/07/06 04:58:05;;;;;;;3.45;0.75;;;12.40;99.90;;;;;;5076357;28;20045;-26
2022/07/06 05:00:31;;;;;;;5.82;0.98;;;12.50;99.90;;;;;;5076234;28;20086;-26
2022/07/06 05:02:57;;;;;;;4.85;0.90;;;12.60;99.90;;;;;;5076266;28;20047;-26
2022/07/06 05:05:23;;;;;;;9.90;1.25;;;12.60;99.90;;;;;;5058501;28;20070;-26
2022/07/06 05:07:48;;;;;;;5.18;0.82;;;12.60;99.90;;;;;;5076387;28;20364;-26
2022/07/06 05:10:14;;;;;;;8.55;1.10;;;12.60;99.90;;;;;;5076110;28;20044;-26
2022/07/06 05:12:40;;;;;;;8.95;1.45;;;12.70;99.90;;;;;;5074991;28;20393;-26
2022/07/06 05:15:08;;;;;;;7.90;0.95;;;12.50;1.00;;;;;;5057901;28;20098;-26
2022/07/06 05:17:33;;;;;;;7.57;0.90;;;12.50;1.00;;;;;;5075668;28;20528;-26
2022/07/06 05:19:59;;;;;;;4.60;0.95;;;12.40;1.00;;;;;;5075740;28;20045;-26
2022/07/06 05:22:25;;;;;;;7.75;1.50;;;12.40;1.00;;;;;;5074752;28;20131;-26
2022/07/06 05:24:51;;;;;;;7.00;1.05;;;12.40;1.00;;;;;;5075951;28;20070;-26
2022/07/06 05:27:17;;;;;;;5.57;2.08;;;12.40;1.00;;;;;;5074687;28;20045;-26
2022/07/06 05:29:43;;;;;;;4.15;1.27;;;12.50;1.00;;;;;;5075184;28;20048;-26
2022/07/06 05:32:08;;;;;;;5.60;1.02;;;12.60;1.00;;;;;;5075802;28;20070;-26
2022/07/06 05:34:36;;;;;;;4.97;1.02;;;13.00;12.20;;;;;;5075681;28;20486;-26
2022/07/06 05:37:02;;;;;;;2.65;0.57;;;13.70;1.00;;;;;;5075651;28;20040;-26
2022/07/06 05:39:28;;;;;;;7.50;0.82;;;13.80;99.90;;;;;;5075615;28;20051;-26
2022/07/06 05:41:53;;;;;;;6.30;0.68;;;13.60;99.90;;;;;;5075634;28;20048;-26
2022/07/06 05:44:19;;;;;;;6.95;0.70;;;13.50;99.90;;;;;;5076345;28;20044;-26
2022/07/06 05:46:45;;;;;;;4.70;0.98;;;13.40;99.90;;;;;;5075403;28;20049;-26
2022/07/06 05:51:55;;;;;;;4.18;1.08;;;13.30;99.90;;;;;;5075719;28;20048;-25
2022/07/06 05:54:20;;;;;;;1.80;0.65;;;13.30;99.90;;;;;;5076415;28;20462;-26
2022/07/06 05:56:46;;;;;;;4.65;0.60;;;13.20;99.90;;;;;;5075338;28;20044;-26
2022/07/06 05:59:12;;;;;;;4.03;0.65;;;13.30;1.00;;;;;;5075801;28;20044;-26
2022/07/06 06:01:37;;;;;;;3.20;1.23;;;13.30;1.00;;;;;;5073987;28;20131;-25
2022/07/06 06:04:03;;;;;;;3.92;0.50;;;13.30;1.00;;;;;;5075936;28;20140;-26
2022/07/06 06:06:31;;;;;;;3.70;0.73;;;13.40;1.00;;;;;;5074697;28;20490;-26
2022/07/06 06:08:57;;;;;;;7.28;0.85;;;13.40;99.90;;;;;;5075069;28;20087;-26
2022/07/06 06:11:22;;;;;;;5.10;0.73;;;13.50;99.90;;;;;;5074438;28;20047;-25
2022/07/06 06:13:48;;;;;;;8.48;0.60;;;13.50;99.90;;;;;;5074678;28;20518;-25
2022/07/06 06:16:15;;;;;;;6.72;0.55;;;13.50;99.90;;;;;;5073861;28;20092;-25
2022/07/06 06:18:41;;;;;;;4.13;0.80;;;13.50;99.90;;;;;;5074708;28;20049;-26
2022/07/06 06:21:07;;;;;;;3.75;0.52;;;13.50;99.90;;;;;;5074768;28;20056;-26
2022/07/06 06:23:33;;;;;;;3.53;0.65;;;13.60;99.90;;;;;;5074120;28;20105;-26
2022/07/06 06:25:58;;;;;;;5.45;0.93;;;13.70;99.90;;;;;;5074532;28;20131;-27
2022/07/06 06:28:24;;;;;;;2.47;0.60;;;13.90;1.00;;;;;;5074461;28;20052;-25
2022/07/06 06:30:50;;;;;;;6.32;1.92;;;14.00;1.00;;;;;;5073301;28;20049;-27
2022/07/06 06:33:19;;;;;;;5.15;0.75;;;14.40;1.00;;;;;;5074565;28;20041;-25
2022/07/06 06:35:50;;;;;;;4.45;0.80;;;14.90;99.90;;;;;;5074454;28;20048;-26
2022/07/06 06:38:16;;;;;;;4.90;0.88;;;15.50;99.90;;;;;;5075228;28;20040;-26
2022/07/06 06:40:42;;;;;;;5.60;0.70;;;16.40;1.00;;;;;;5074253;28;20059;-26
2022/07/06 06:43:09;;;;;;;7.32;0.68;;;17.10;99.90;;;;;;5074068;28;20519;-26
2022/07/06 06:45:35;;;;;;;7.72;1.48;;;16.90;15.00;;;;;;5073116;28;20043;-26
2022/07/06 06:48:01;;;;;;;5.93;0.80;;;16.20;99.90;;;;;;5073114;28;20076;-26
2022/07/06 06:50:27;;;;;;;4.38;0.57;;;15.60;99.90;;;;;;5074198;28;20044;-26
2022/07/06 06:52:52;;;;;;;6.60;1.33;;;15.20;99.90;;;;;;5073019;28;20040;-25
2022/07/06 06:55:18;;;;;;;5.05;0.75;;;14.90;99.90;;;;;;5072943;28;20050;-25
2022/07/06 06:57:44;;;;;;;5.47;1.63;;;14.70;99.90;;;;;;5074152;28;20091;-25
2022/07/06 07:00:10;;;;;;;6.85;1.08;;;14.80;99.90;;;;;;5073363;28;20105;-25
2022/07/06 07:02:36;;;;;;;5.57;0.95;;;15.70;99.90;;;;;;5073739;28;20402;-25
2022/07/06 07:05:03;;;;;;;7.30;0.50;;;16.40;99.90;;;;;;5074038;28;20426;-25
2022/07/06 07:07:29;;;;;;;6.32;0.63;;;16.90;1.00;;;;;;5073902;28;20134;-25
2022/07/06 07:09:54;;;;;;;4.50;0.60;;;17.50;1.00;;;;;;5072697;28;20052;-25
2022/07/06 07:12:20;;;;;;;5.55;0.50;;;18.20;99.90;;;;;;5073918;28;20123;-26
2022/07/06 07:14:47;;;;;;;5.68;0.40;;;18.70;99.90;;;;;;5072600;28;20398;-25
2022/07/06 07:17:13;;;;;;;5.95;0.60;;;18.60;1.00;;;;;;5073771;28;20049;-25
2022/07/06 07:19:39;;;;;;;3.78;0.60;;;18.10;1.00;;;;;;5073819;28;20067;-26
2022/07/06 07:22:05;;;;;;;2.85;0.63;;;18.00;99.90;;;;;;5072182;28;20044;-26
2022/07/06 07:24:31;;;;;;;2.28;0.40;;;18.30;99.90;;;;;;5073371;28;20045;-27
2022/07/06 07:26:56;;;;;;;5.45;0.88;;;18.50;1.00;;;;;;5072475;28;20045;-25
2022/07/06 07:29:22;;;;;;;5.03;0.73;;;18.30;46.10;;;;;;5074289;28;20048;-26
2022/07/06 07:31:48;;;;;;;4.13;0.60;;;17.80;97.50;;;;;;5074224;28;20047;-25
2022/07/06 07:34:14;;;;;;;2.35;0.32;;;17.50;99.90;;;;;;5074214;28;20044;-25
2022/07/06 07:36:39;;;;;;;3.00;0.40;;;17.30;99.90;;;;;;5073647;28;20037;-26
2022/07/06 07:39:05;;;;;;;2.65;0.30;;;17.50;99.90;;;;;;5073606;28;20106;-26
2022/07/06 07:41:31;;;;;;;3.20;0.85;;;17.70;1.00;;;;;;5073638;28;20051;-26
2022/07/06 07:43:57;;;;;;;3.83;0.40;;;18.20;99.90;;;;;;5073673;28;20040;-26
2022/07/06 07:46:22;;;;;;;4.30;0.32;;;18.80;99.90;;;;;;5073511;28;20039;-26
2022/07/06 07:48:49;;;;;;;3.55;0.32;;;18.60;99.90;;;;;;5072396;28;20076;-26
2022/07/06 07:51:15;;;;;;;4.00;0.60;;;18.20;1.00;;;;;;5055583;28;20048;-25
2022/07/06 07:53:40;;;;;;;3.60;0.50;;;18.40;1.00;;;;;;5074061;28;20052;-26
2022/07/06 07:56:06;;;;;;;4.13;0.90;;;18.30;99.90;;;;;;5072508;28;20040;-26
2022/07/06 07:58:32;;;;;;;5.57;0.73;;;17.70;1.00;;;;;;5073968;28;20145;-25
2022/07/06 08:00:57;;;;;;;3.78;0.40;;;17.10;99.90;;;;;;5073418;28;20048;-26
2022/07/06 08:03:23;;;;;;;4.40;0.28;;;16.90;99.90;;;;;;5072147;28;20048;-25
2022/07/06 08:05:49;;;;;;;4.13;0.43;;;17.20;99.90;;;;;;5073842;28;20044;-25
2022/07/06 08:08:15;;;;;;;3.92;0.43;;;17.60;1.00;;;;;;5073346;28;20044;-25
2022/07/06 08:10:41;;;;;;;2.28;0.30;;;17.80;1.00;;;;;;5073373;28;20055;-26
2022/07/06 08:13:07;;;;;;;4.60;0.43;;;18.00;1.00;;;;;;5073927;28;20045;-27
2022/07/06 08:15:33;;;;;;;3.95;1.02;;;18.20;1.00;;;;;;5074084;28;20075;-26
2022/07/06 08:17:59;;;;;;;8.75;0.88;;;18.30;1.00;;;;;;5073399;28;20050;-26
2022/07/06 08:20:25;;;;;;;4.70;0.40;;;18.50;99.90;;;;;;5073188;28;20131;-25
2022/07/06 08:22:51;;;;;;;1.58;0.38;;;18.90;99.90;;;;;;5073204;28;20051;-26
2022/07/06 08:25:17;;;;;;;6.50;1.50;;;19.10;99.90;;;;;;5072206;28;20056;-25
2022/07/06 08:27:43;;;;;;;2.67;0.43;;;19.00;1.00;;;;;;5073612;28;20039;-26
2022/07/06 08:30:10;;;;;;;4.13;0.43;;;18.70;1.00;;;;;;5073112;28;20044;-26
2022/07/06 08:32:40;;;;;;;4.47;0.70;;;18.40;1.00;;;;;;5073065;28;20053;-26
2022/07/06 08:35:06;;;;;;;3.53;0.30;;;18.20;99.90;;;;;;5075359;28;20044;-25
2022/07/06 08:37:31;;;;;;;3.10;0.43;;;18.30;1.00;;;;;;5059493;28;20048;-25
2022/07/06 08:39:57;;;;;;;3.80;0.98;;;18.10;1.00;;;;;;5077547;28;20504;-25
2022/07/06 08:42:29;;;;;;;5.63;0.30;;;17.70;1.00;;;;;;5076709;28;20136;-26
2022/07/06 08:44:58;;;;;;;2.83;0.50;;;17.20;31.70;;;;;;5077502;28;20047;-26
2022/07/06 08:47:26;;;;;;;5.30;0.70;;;16.80;99.90;;;;;;5076522;28;20049;-26
2022/07/06 08:49:52;;;;;;;3.97;0.30;;;16.50;99.90;;;;;;5076527;28;20044;-25
2022/07/06 08:52:18;;;;;;;3.95;0.20;;;16.40;99.90;;;;;;5076541;28;20049;-26
2022/07/06 08:54:44;;;;;;;4.18;0.40;;;16.40;99.90;;;;;;5042112;28;20493;-25
2022/07/06 08:57:10;;;;;;;4.22;0.52;;;16.60;1.00;;;;;;5042064;28;20051;-26
2022/07/06 08:59:38;;;;;;;5.03;0.57;;;17.10;99.90;;;;;;5076399;28;20040;-26
2022/07/06 09:02:04;;;;;;;6.68;0.52;;;17.70;99.90;;;;;;5076361;28;20430;-26
2022/07/06 09:04:35;;;;;;;4.40;0.70;;;18.40;99.90;;;;;;5077118;28;20122;-25
2022/07/06 09:07:01;;;;;;;4.72;0.50;;;18.60;99.90;;;;;;5075104;28;20089;-25
2022/07/06 09:09:30;;;;;;;2.83;0.40;;;18.40;86.60;;;;;;5076257;28;20048;-25
2022/07/06 09:11:57;;;;;;;4.93;0.60;;;18.10;1.00;;;;;;5076134;28;20049;-26
2022/07/06 09:14:23;;;;;;;3.10;0.38;;;18.00;99.90;;;;;;5076260;28;20052;-27
2022/07/06 09:17:00;;;;;;;4.90;0.50;;;18.40;99.90;;;;;;5076097;28;20048;-25
2022/07/06 09:19:26;;;;;;;3.65;0.30;;;19.00;99.90;;;;;;5076022;28;20432;-27
2022/07/06 09:21:52;;;;;;;5.82;0.60;;;19.50;1.00;;;;;;5075114;28;20128;-26
2022/07/06 09:24:18;;;;;;;4.93;0.63;;;19.30;99.90;;;;;;5076514;28;20040;-26
2022/07/06 09:26:47;;;;;;;4.85;0.65;;;19.00;99.90;;;;;;5075814;28;20118;-26
2022/07/06 09:29:13;;;;;;;3.28;0.50;;;18.80;99.90;;;;;;5074899;28;20120;-26
2022/07/06 09:31:39;;;;;;;4.90;0.50;;;18.40;99.90;;;;;;5075769;28;20044;-26
2022/07/06 09:34:09;;;;;;;4.35;0.43;;;18.10;1.00;;;;;;5075754;28;20052;-26
2022/07/06 09:36:48;;;;;;;2.25;0.40;;;17.90;1.00;;;;;;5076244;28;20047;-26
2022/07/06 09:39:19;;;;;;;3.40;0.47;;;17.90;1.00;;;;;;5075526;28;20050;-26
2022/07/06 09:41:47;;;;;;;4.90;0.70;;;18.40;22.30;;;;;;5076451;28;20044;-26
2022/07/06 09:44:12;;;;;;;3.10;0.70;;;19.00;1.00;;;;;;5075596;28;20048;-26
2022/07/06 09:46:41;;;;;;;6.00;0.77;;;19.10;99.90;;;;;;5074536;28;20386;-26
2022/07/06 09:49:07;;;;;;;3.58;0.40;;;18.90;99.90;;;;;;5076295;28;20071;-27
2022/07/06 09:51:36;;;;;;;4.18;0.55;;;18.50;99.90;;;;;;5076236;28;20052;-26
2022/07/06 09:54:11;;;;;;;3.08;0.80;;;18.00;1.00;;;;;;5075386;28;20113;-26
2022/07/06 09:56:42;;;;;;;2.90;0.60;;;17.80;1.00;;;;;;5074964;28;20398;-26
2022/07/06 09:59:12;;;;;;;5.47;0.77;;;18.00;99.90;;;;;;5074949;28;20555;-27
2022/07/06 10:01:38;;;;;;;3.60;0.40;;;18.50;99.90;;;;;;5074217;28;20105;-26
2022/07/06 10:04:18;;;;;;;4.38;0.45;;;19.10;99.90;;;;;;5058224;28;20390;-26
2022/07/06 10:06:44;;;;;;;3.08;0.43;;;19.60;99.90;;;;;;5075317;28;20121;-26
2022/07/06 10:09:11;;;;;;;3.85;0.63;;;20.10;52.10;;;;;;5075042;28;20132;-26
2022/07/06 10:11:39;;;;;;;2.83;0.63;;;20.50;39.90;;;;;;5075035;28;20437;-26
2022/07/06 10:14:06;;;;;;;5.30;0.57;;;20.60;1.00;;;;;;5075476;28;20099;-26
2022/07/06 10:16:36;;;;;;;0.98;0.30;;;20.50;1.00;;;;;;5073645;28;20063;-26
2022/07/06 10:19:07;;;;;;;5.60;1.08;;;20.90;1.00;;;;;;5074892;28;20053;-26
2022/07/06 10:21:37;;;;;;;2.33;0.60;;;20.60;99.90;;;;;;5075159;28;20049;-26
2022/07/06 10:24:04;;;;;;;3.83;0.57;;;20.60;99.90;;;;;;5073632;28;20186;-26
2022/07/06 10:26:32;;;;;;;3.78;0.32;;;20.90;99.90;;;;;;5074182;28;20433;-26
2022/07/06 10:29:05;;;;;;;3.90;0.70;;;20.70;99.90;;;;;;5075227;28;20485;-26
2022/07/06 10:31:33;;;;;;;2.83;0.40;;;20.10;1.00;;;;;;5074131;28;20445;-26
2022/07/06 10:34:04;;;;;;;1.27;0.40;;;20.10;99.90;;;;;;5058013;28;20157;-27
2022/07/06 10:36:30;;;;;;;3.25;0.40;;;20.50;1.00;;;;;;5073384;28;20047;-26
2022/07/06 10:38:56;;;;;;;6.88;0.50;;;20.60;99.90;;;;;;5075022;28;20044;-26
2022/07/06 10:41:35;;;;;;;1.65;0.35;;;20.70;99.90;;;;;;5074403;28;20052;-26
2022/07/06 10:44:18;;;;;;;4.93;0.55;;;20.70;1.00;;;;;;5074632;28;20044;-26
2022/07/06 10:46:54;;;;;;;2.25;0.40;;;20.40;99.90;;;;;;5074900;28;20047;-26
2022/07/06 10:49:21;;;;;;;2.40;0.22;;;20.60;99.90;;;;;;5073171;28;20142;-26
2022/07/06 10:51:47;;;;;;;3.38;0.30;;;20.80;99.90;;;;;;5074311;28;20045;-26
2022/07/06 10:54:13;;;;;;;1.77;0.30;;;21.10;99.90;;;;;;5073523;28;20048;-28
2022/07/06 10:56:45;;;;;;;1.88;0.40;;;21.20;99.90;;;;;;5073984;28;20036;-26
2022/07/06 10:59:13;;;;;;;5.65;0.47;;;21.00;99.90;;;;;;5074723;28;20557;-26
2022/07/06 11:01:39;;;;;;;9.77;0.70;;;21.00;99.90;;;;;;5074108;28;20048;-26
2022/07/06 11:04:08;;;;;;;3.65;0.50;;;21.10;91.00;;;;;;5074023;28;20490;-26
2022/07/06 11:06:39;;;;;;;3.65;0.68;;;21.60;33.10;;;;;;5073935;28;20049;-26
2022/07/06 11:09:06;;;;;;;3.70;0.28;;;21.10;1.00;;;;;;5073975;28;20053;-26
2022/07/06 11:11:35;;;;;;;1.90;0.30;;;21.30;99.90;;;;;;5074478;28;20107;-27
2022/07/06 11:14:08;;;;;;;2.17;0.43;;;21.30;1.00;;;;;;5072572;28;20105;-26
2022/07/06 11:16:48;;;;;;;1.95;0.30;;;20.90;1.00;;;;;;5073329;28;20294;-26
2022/07/06 11:19:19;;;;;;;2.38;0.35;;;20.40;1.00;;;;;;5073830;28;20109;-26
2022/07/06 11:21:56;;;;;;;3.53;0.55;;;20.10;1.00;;;;;;5074161;28;20044;-26
2022/07/06 11:24:33;;;;;;;3.53;0.52;;;20.10;1.00;;;;;;5073420;28;20102;-26
2022/07/06 11:27:00;;;;;;;1.20;0.30;;;20.10;99.90;;;;;;5072943;28;20045;-26
2022/07/06 11:29:27;;;;;;;2.25;0.30;;;20.30;99.90;;;;;;5072558;28;20088;-26
2022/07/06 11:32:03;;;;;;;1.85;0.40;;;20.00;1.00;;;;;;5074290;28;20044;-27
2022/07/06 11:34:34;;;;;;;1.70;0.32;;;20.40;1.00;;;;;;5073057;28;20112;-26
2022/07/06 11:37:12;;;;;;;1.90;0.40;;;21.00;1.00;;;;;;5072736;28;20061;-26
2022/07/06 11:39:40;;;;;;;5.55;0.70;;;20.90;1.00;;;;;;5072552;28;20048;-27
2022/07/06 11:42:07;;;;;;;4.88;0.63;;;20.70;1.00;;;;;;5074168;28;20101;-27
2022/07/06 11:44:34;;;;;;;4.88;0.30;;;21.00;1.00;;;;;;5073637;28;20541;-27
2022/07/06 11:47:03;;;;;;;1.92;0.30;;;21.30;99.90;;;;;;5073472;28;20084;-27
2022/07/06 11:49:36;;;;;;;2.67;0.40;;;21.00;99.90;;;;;;5072606;28;20087;-26
2022/07/06 11:52:07;;;;;;;3.00;0.43;;;20.50;1.00;;;;;;5055895;28;20040;-26
2022/07/06 11:54:33;;;;;;;2.80;0.30;;;20.30;1.00;;;;;;5074033;28;20052;-26
2022/07/06 11:57:00;;;;;;;3.17;0.40;;;20.20;69.70;;;;;;5073481;28;20371;-26
2022/07/06 11:59:28;;;;;;;3.15;0.30;;;20.10;91.10;;;;;;5073085;28;20383;-27
2022/07/06 12:02:11;;;;;;;2.90;0.68;;;20.30;99.90;;;;;;5055496;28;20055;-27
2022/07/06 12:04:40;;;;;;;2.28;0.40;;;20.20;99.90;;;;;;5073450;28;20090;-26
2022/07/06 12:07:13;;;;;;;2.38;0.52;;;19.90;22.80;;;;;;5072192;28;20048;-26
2022/07/06 12:09:42;;;;;;;4.47;0.50;;;19.60;99.90;;;;;;5075157;28;20044;-26
2022/07/06 12:12:09;;;;;;;1.60;0.30;;;19.60;99.90;;;;;;5076194;28;20052;-26
2022/07/06 12:14:37;;;;;;;1.38;0.20;;;20.00;1.00;;;;;;5076950;28;20091;-26
2022/07/06 12:17:16;;;;;;;1.30;0.30;;;20.10;99.90;;;;;;5077725;28;20044;-28
2022/07/06 12:19:42;;;;;;;3.40;0.30;;;20.10;1.00;;;;;;5059500;28;20494;-27
2022/07/06 12:22:09;;;;;;;3.50;0.65;;;20.20;1.00;;;;;;5076140;28;20083;-26
2022/07/06 12:24:37;;;;;;;1.02;0.30;;;20.40;3.50;;;;;;5077597;28;20127;-27
2022/07/06 12:27:16;;;;;;;1.13;0.30;;;20.40;1.00;;;;;;5075690;28;20047;-26
2022/07/06 12:29:42;;;;;;;3.70;0.40;;;20.50;99.90;;;;;;5076941;28;20041;-26
2022/07/06 12:32:17;;;;;;;3.35;0.40;;;20.60;99.90;;;;;;5077721;28;20469;-26
2022/07/06 12:34:44;;;;;;;2.03;0.32;;;20.30;1.00;;;;;;5076885;28;20532;-26
2022/07/06 12:37:14;;;;;;;4.28;0.43;;;20.10;99.90;;;;;;5076800;28;20052;-26
2022/07/06 12:39:47;;;;;;;2.13;0.30;;;19.90;99.90;;;;;;5076839;28;20106;-27
2022/07/06 12:42:19;;;;;;;0.88;0.40;;;19.90;99.90;;;;;;5076664;28;20044;-26
2022/07/06 12:44:46;;;;;;;;;;;19.90;1.00;;;;;;5075951;28;20045;-26
2022/07/06 12:47:12;;;;;;;4.03;0.80;;;19.80;47.40;;;;;;5077179;28;19920;-27
2022/07/06 12:49:39;;;;;;;1.20;0.30;;;19.90;1.00;;;;;;5075390;28;20079;-27
2022/07/06 12:52:09;;;;;;;1.00;0.25;;;19.80;99.90;;;;;;5076544;28;20070;-26
2022/07/06 12:54:36;;;;;;;3.83;0.50;;;19.60;99.90;;;;;;5076568;28;20442;-26
2022/07/06 12:57:07;;;;;;;3.15;0.55;;;19.40;99.90;;;;;;5076447;28;20048;-26